sensor_id;sensor_type;location;lat;lon;timestamp;pressure;altitude;pressure_sealevel;temperature;humidity
40730;BME280;26418;50.070;8.436;2022-09-01T00:02:14;100342.16;;;17.62;54.09
40730;BME280;26418;50.070;8.436;2022-09-01T00:04:42;100339.13;;;17.55;54.31
40730;BME280;26418;50.070;8.436;2022-09-01T00:07:10;100343.94;;;17.58;54.42
40730;BME280;26418;50.070;8.436;2022-09-01T00:09:36;100351.50;;;17.61;54.21
40730;BME280;26418;50.070;8.436;2022-09-01T00:12:04;100350.00;;;17.64;54.05
40730;BME280;26418;50.070;8.436;2022-09-01T00:14:32;100342.16;;;17.62;54.24
40730;BME280;26418;50.070;8.436;2022-09-01T00:17:00;100347.81;;;17.57;54.36
40730;BME280;26418;50.070;8.436;2022-09-01T00:19:27;100355.22;;;17.56;54.31
40730;BME280;26418;50.070;8.436;2022-09-01T00:21:54;100361.38;;;17.53;54.46
40730;BME280;26418;50.070;8.436;2022-09-01T00:24:21;100350.78;;;17.52;54.48
40730;BME280;26418;50.070;8.436;2022-09-01T00:26:47;100356.78;;;17.45;54.81
40730;BME280;26418;50.070;8.436;2022-09-01T00:29:13;100353.56;;;17.43;54.70
40730;BME280;26418;50.070;8.436;2022-09-01T00:31:40;100354.72;;;17.42;54.67
40730;BME280;26418;50.070;8.436;2022-09-01T00:34:05;100353.13;;;17.41;54.80
40730;BME280;26418;50.070;8.436;2022-09-01T00:36:31;100354.72;;;17.42;54.88
40730;BME280;26418;50.070;8.436;2022-09-01T00:38:56;100350.84;;;17.43;54.73
40730;BME280;26418;50.070;8.436;2022-09-01T00:41:25;100346.84;;;17.40;54.85
40730;BME280;26418;50.070;8.436;2022-09-01T00:43:54;100350.41;;;17.41;54.88
40730;BME280;26418;50.070;8.436;2022-09-01T00:46:21;100344.00;;;17.37;54.87
40730;BME280;26418;50.070;8.436;2022-09-01T00:48:52;100346.94;;;17.32;55.13
40730;BME280;26418;50.070;8.436;2022-09-01T00:51:18;100345.00;;;17.32;55.22
40730;BME280;26418;50.070;8.436;2022-09-01T00:53:44;100339.75;;;17.27;55.25
40730;BME280;26418;50.070;8.436;2022-09-01T00:56:10;100345.09;;;17.23;55.46
40730;BME280;26418;50.070;8.436;2022-09-01T00:58:37;100352.03;;;17.21;55.65
40730;BME280;26418;50.070;8.436;2022-09-01T01:01:06;100343.66;;;17.17;55.58
40730;BME280;26418;50.070;8.436;2022-09-01T01:03:32;100342.75;;;17.13;55.84
40730;BME280;26418;50.070;8.436;2022-09-01T01:06:02;100343.88;;;17.12;55.77
40730;BME280;26418;50.070;8.436;2022-09-01T01:08:31;100338.41;;;17.12;55.91
40730;BME280;26418;50.070;8.436;2022-09-01T01:11:03;100335.81;;;17.16;55.87
40730;BME280;26418;50.070;8.436;2022-09-01T01:13:29;100333.28;;;17.10;55.78
40730;BME280;26418;50.070;8.436;2022-09-01T01:16:00;100339.53;;;17.11;56.00
40730;BME280;26418;50.070;8.436;2022-09-01T01:18:26;100332.03;;;17.08;56.00
40730;BME280;26418;50.070;8.436;2022-09-01T01:21:02;100332.34;;;17.06;55.82
40730;BME280;26418;50.070;8.436;2022-09-01T01:24:05;100328.56;;;16.99;56.20
40730;BME280;26418;50.070;8.436;2022-09-01T01:26:33;100329.84;;;17.01;56.21
40730;BME280;26418;50.070;8.436;2022-09-01T01:28:59;100327.88;;;17.02;56.28
40730;BME280;26418;50.070;8.436;2022-09-01T01:31:26;100323.75;;;16.95;56.41
40730;BME280;26418;50.070;8.436;2022-09-01T01:33:54;100325.25;;;16.93;56.60
40730;BME280;26418;50.070;8.436;2022-09-01T01:36:21;100326.34;;;16.92;56.65
40730;BME280;26418;50.070;8.436;2022-09-01T01:38:51;100329.59;;;16.85;56.86
40730;BME280;26418;50.070;8.436;2022-09-01T01:41:18;100322.06;;;16.82;56.94
40730;BME280;26418;50.070;8.436;2022-09-01T01:43:44;100322.53;;;16.84;57.14
40730;BME280;26418;50.070;8.436;2022-09-01T01:46:11;100329.28;;;16.87;56.85
40730;BME280;26418;50.070;8.436;2022-09-01T01:48:40;100319.34;;;16.82;57.16
40730;BME280;26418;50.070;8.436;2022-09-01T01:51:07;100313.94;;;16.73;57.31
40730;BME280;26418;50.070;8.436;2022-09-01T01:53:33;100330.28;;;16.82;57.25
40730;BME280;26418;50.070;8.436;2022-09-01T01:55:59;100318.75;;;16.76;57.39
40730;BME280;26418;50.070;8.436;2022-09-01T01:58:26;100322.13;;;16.73;57.48
40730;BME280;26418;50.070;8.436;2022-09-01T02:00:54;100327.72;;;16.77;57.41
40730;BME280;26418;50.070;8.436;2022-09-01T02:03:22;100329.66;;;16.76;57.71
40730;BME280;26418;50.070;8.436;2022-09-01T02:05:52;100330.94;;;16.79;57.52
40730;BME280;26418;50.070;8.436;2022-09-01T02:08:18;100333.66;;;16.79;57.89
40730;BME280;26418;50.070;8.436;2022-09-01T02:10:52;100330.94;;;16.79;57.82
40730;BME280;26418;50.070;8.436;2022-09-01T02:13:21;100327.72;;;16.77;58.08
40730;BME280;26418;50.070;8.436;2022-09-01T02:15:56;100334.19;;;16.72;58.40
40730;BME280;26418;50.070;8.436;2022-09-01T02:20:51;100316.47;;;16.78;58.33
40730;BME280;26418;50.070;8.436;2022-09-01T02:23:19;100316.78;;;16.77;58.23
40730;BME280;26418;50.070;8.436;2022-09-01T02:25:48;100312.00;;;16.74;58.42
40730;BME280;26418;50.070;8.436;2022-09-01T02:28:16;100313.47;;;16.71;58.77
40730;BME280;26418;50.070;8.436;2022-09-01T02:30:45;100309.28;;;16.74;58.80
40730;BME280;26418;50.070;8.436;2022-09-01T02:33:14;100312.66;;;16.71;59.04
40730;BME280;26418;50.070;8.436;2022-09-01T02:35:45;100278.16;;;16.45;59.32
40730;BME280;26418;50.070;8.436;2022-09-01T02:38:10;100315.53;;;16.74;59.21
40730;BME280;26418;50.070;8.436;2022-09-01T02:40:39;100314.75;;;16.74;59.26
40730;BME280;26418;50.070;8.436;2022-09-01T02:45:34;100317.66;;;16.69;59.58
40730;BME280;26418;50.070;8.436;2022-09-01T02:48:00;100305.81;;;16.64;59.75
40730;BME280;26418;50.070;8.436;2022-09-01T02:50:25;100314.13;;;16.68;59.63
40730;BME280;26418;50.070;8.436;2022-09-01T02:52:51;100305.81;;;16.64;59.83
40730;BME280;26418;50.070;8.436;2022-09-01T02:55:19;100316.91;;;16.59;60.03
40730;BME280;26418;50.070;8.436;2022-09-01T02:57:49;100299.94;;;16.54;60.19
40730;BME280;26418;50.070;8.436;2022-09-01T03:00:16;100309.84;;;16.58;60.06
40730;BME280;26418;50.070;8.436;2022-09-01T03:02:51;100287.47;;;16.44;60.08
40730;BME280;26418;50.070;8.436;2022-09-01T03:05:20;100310.38;;;16.52;60.40
40730;BME280;26418;50.070;8.436;2022-09-01T03:07:57;100295.31;;;16.45;60.57
40730;BME280;26418;50.070;8.436;2022-09-01T03:10:38;100299.13;;;16.53;60.57
40730;BME280;26418;50.070;8.436;2022-09-01T03:13:14;100298.66;;;16.51;60.62
40730;BME280;26418;50.070;8.436;2022-09-01T03:15:41;100303.59;;;16.58;60.71
40730;BME280;26418;50.070;8.436;2022-09-01T03:18:08;100298.13;;;16.58;60.62
40730;BME280;26418;50.070;8.436;2022-09-01T03:20:36;100295.75;;;16.56;60.69
40730;BME280;26418;50.070;8.436;2022-09-01T03:23:04;100296.75;;;16.52;60.84
40730;BME280;26418;50.070;8.436;2022-09-01T03:25:33;100295.19;;;16.42;61.12
40730;BME280;26418;50.070;8.436;2022-09-01T03:27:59;100298.53;;;16.47;61.15
40730;BME280;26418;50.070;8.436;2022-09-01T03:30:27;100300.00;;;16.45;61.23
40730;BME280;26418;50.070;8.436;2022-09-01T03:32:57;100298.09;;;16.37;61.46
40730;BME280;26418;50.070;8.436;2022-09-01T03:35:24;100297.63;;;16.34;61.68
40730;BME280;26418;50.070;8.436;2022-09-01T03:37:51;100283.44;;;16.20;61.83
40730;BME280;26418;50.070;8.436;2022-09-01T03:40:17;100286.63;;;16.22;61.52
40730;BME280;26418;50.070;8.436;2022-09-01T03:42:43;100303.94;;;16.26;61.90
40730;BME280;26418;50.070;8.436;2022-09-01T03:45:10;100302.53;;;16.20;62.19
40730;BME280;26418;50.070;8.436;2022-09-01T03:47:39;100298.19;;;16.19;62.31
40730;BME280;26418;50.070;8.436;2022-09-01T03:50:07;100281.53;;;16.12;62.08
40730;BME280;26418;50.070;8.436;2022-09-01T03:52:36;100294.34;;;16.20;62.27
40730;BME280;26418;50.070;8.436;2022-09-01T03:55:03;100285.19;;;16.16;62.43
40730;BME280;26418;50.070;8.436;2022-09-01T03:57:29;100290.50;;;16.21;62.29
40730;BME280;26418;50.070;8.436;2022-09-01T03:59:54;100288.09;;;16.19;62.31
40730;BME280;26418;50.070;8.436;2022-09-01T04:02:20;100289.84;;;16.24;62.42
40730;BME280;26418;50.070;8.436;2022-09-01T04:04:46;100294.34;;;16.20;62.46
40730;BME280;26418;50.070;8.436;2022-09-01T04:07:11;100302.72;;;16.15;62.55
40730;BME280;26418;50.070;8.436;2022-09-01T04:09:37;100304.31;;;16.16;62.64
40730;BME280;26418;50.070;8.436;2022-09-01T04:12:04;100294.41;;;16.11;62.79
40730;BME280;26418;50.070;8.436;2022-09-01T04:14:33;100300.16;;;16.10;62.96
40730;BME280;26418;50.070;8.436;2022-09-01T04:16:59;100308.84;;;16.12;62.84
40730;BME280;26418;50.070;8.436;2022-09-01T04:19:43;100295.53;;;16.10;62.58
40730;BME280;26418;50.070;8.436;2022-09-01T04:22:08;100300.84;;;16.07;62.82
40730;BME280;26418;50.070;8.436;2022-09-01T04:24:38;100302.41;;;16.08;62.85
40730;BME280;26418;50.070;8.436;2022-09-01T04:27:09;100293.31;;;16.03;62.73
40730;BME280;26418;50.070;8.436;2022-09-01T04:29:34;100295.84;;;16.09;62.87
40730;BME280;26418;50.070;8.436;2022-09-01T04:32:07;100304.69;;;16.06;62.81
40730;BME280;26418;50.070;8.436;2022-09-01T04:34:37;100296.69;;;16.00;62.94
40730;BME280;26418;50.070;8.436;2022-09-01T04:37:16;100296.50;;;16.06;62.80
40730;BME280;26418;50.070;8.436;2022-09-01T04:39:48;100304.22;;;16.03;62.82
40730;BME280;26418;50.070;8.436;2022-09-01T04:42:16;100303.94;;;15.96;63.08
40730;BME280;26418;50.070;8.436;2022-09-01T04:44:43;100306.50;;;15.93;63.39
40730;BME280;26418;50.070;8.436;2022-09-01T04:47:11;100306.66;;;15.96;63.38
40730;BME280;26418;50.070;8.436;2022-09-01T04:49:50;100286.94;;;15.91;63.31
40730;BME280;26418;50.070;8.436;2022-09-01T04:52:15;100307.13;;;15.98;63.39
40730;BME280;26418;50.070;8.436;2022-09-01T04:54:40;100302.81;;;15.97;63.46
40730;BME280;26418;50.070;8.436;2022-09-01T04:57:08;100256.53;;;15.62;63.49
40730;BME280;26418;50.070;8.436;2022-09-01T04:59:34;100292.72;;;15.80;63.44
40730;BME280;26418;50.070;8.436;2022-09-01T05:02:00;100286.97;;;15.82;63.64
40730;BME280;26418;50.070;8.436;2022-09-01T05:04:29;100309.25;;;15.93;63.38
40730;BME280;26418;50.070;8.436;2022-09-01T05:06:58;100297.22;;;15.85;63.57
40730;BME280;26418;50.070;8.436;2022-09-01T05:09:27;100309.56;;;15.91;63.72
40730;BME280;26418;50.070;8.436;2022-09-01T05:11:54;100268.72;;;15.65;63.51
40730;BME280;26418;50.070;8.436;2022-09-01T05:14:22;100316.44;;;15.97;63.52
40730;BME280;26418;50.070;8.436;2022-09-01T05:16:48;100318.19;;;16.02;63.83
40730;BME280;26418;50.070;8.436;2022-09-01T05:19:16;100318.34;;;16.06;63.52
40730;BME280;26418;50.070;8.436;2022-09-01T05:21:44;100288.88;;;15.90;63.29
40730;BME280;26418;50.070;8.436;2022-09-01T05:24:12;100295.47;;;15.89;63.21
40730;BME280;26418;50.070;8.436;2022-09-01T05:26:39;100302.31;;;15.95;64.38
40730;BME280;26418;50.070;8.436;2022-09-01T05:29:05;100315.22;;;16.16;63.27
40730;BME280;26418;50.070;8.436;2022-09-01T05:31:39;100290.56;;;16.03;63.05
40730;BME280;26418;50.070;8.436;2022-09-01T05:34:05;100307.72;;;16.13;63.27
40730;BME280;26418;50.070;8.436;2022-09-01T05:36:33;100309.47;;;16.17;63.02
40730;BME280;26418;50.070;8.436;2022-09-01T05:38:59;100306.38;;;16.19;62.47
40730;BME280;26418;50.070;8.436;2022-09-01T05:41:26;100321.75;;;16.32;62.73
40730;BME280;26418;50.070;8.436;2022-09-01T05:43:51;100264.75;;;16.01;62.30
40730;BME280;26418;50.070;8.436;2022-09-01T05:46:23;100300.09;;;16.27;62.37
40730;BME280;26418;50.070;8.436;2022-09-01T05:48:49;100320.56;;;16.42;62.99
40730;BME280;26418;50.070;8.436;2022-09-01T05:51:17;100302.06;;;16.48;62.77
40730;BME280;26418;50.070;8.436;2022-09-01T05:53:44;100317.19;;;16.66;62.21
40730;BME280;26418;50.070;8.436;2022-09-01T05:56:11;100250.84;;;16.45;62.28
40730;BME280;26418;50.070;8.436;2022-09-01T05:58:38;100310.09;;;16.95;60.93
40730;BME280;26418;50.070;8.436;2022-09-01T06:01:05;100320.88;;;17.13;60.25
40730;BME280;26418;50.070;8.436;2022-09-01T06:03:31;100321.81;;;17.17;59.29
40730;BME280;26418;50.070;8.436;2022-09-01T06:06:02;100319.28;;;17.12;59.45
40730;BME280;26418;50.070;8.436;2022-09-01T06:08:30;100307.16;;;17.01;60.05
40730;BME280;26418;50.070;8.436;2022-09-01T06:10:56;100305.81;;;16.86;59.90
40730;BME280;26418;50.070;8.436;2022-09-01T06:13:21;100307.47;;;16.78;60.11
40730;BME280;26418;50.070;8.436;2022-09-01T06:15:48;100299.41;;;16.81;60.27
40730;BME280;26418;50.070;8.436;2022-09-01T06:18:14;100335.44;;;17.05;59.57
40730;BME280;26418;50.070;8.436;2022-09-01T06:20:42;100323.91;;;16.99;59.77
40730;BME280;26418;50.070;8.436;2022-09-01T06:23:09;100338.28;;;17.08;59.65
40730;BME280;26418;50.070;8.436;2022-09-01T06:25:37;100293.59;;;16.83;59.69
40730;BME280;26418;50.070;8.436;2022-09-01T06:28:04;100303.53;;;16.88;60.09
40730;BME280;26418;50.070;8.436;2022-09-01T06:30:30;100332.34;;;17.06;59.64
40730;BME280;26418;50.070;8.436;2022-09-01T06:33:01;100307.75;;;17.06;59.97
40730;BME280;26418;50.070;8.436;2022-09-01T06:35:27;100334.75;;;17.29;59.77
40730;BME280;26418;50.070;8.436;2022-09-01T06:37:54;100336.91;;;17.36;59.58
40730;BME280;26418;50.070;8.436;2022-09-01T06:40:21;100339.28;;;17.58;59.12
40730;BME280;26418;50.070;8.436;2022-09-01T06:42:50;100293.66;;;17.38;58.47
40730;BME280;26418;50.070;8.436;2022-09-01T06:45:18;100289.31;;;17.37;57.97
40730;BME280;26418;50.070;8.436;2022-09-01T06:47:45;100336.56;;;17.71;57.67
40730;BME280;26418;50.070;8.436;2022-09-01T06:50:12;100341.81;;;17.76;57.93
40730;BME280;26418;50.070;8.436;2022-09-01T06:52:45;100296.88;;;17.52;58.26
40730;BME280;26418;50.070;8.436;2022-09-01T06:55:31;100321.88;;;17.75;57.77
40730;BME280;26418;50.070;8.436;2022-09-01T06:57:58;100320.63;;;17.85;57.50
40730;BME280;26418;50.070;8.436;2022-09-01T07:00:23;100292.47;;;17.72;57.01
40730;BME280;26418;50.070;8.436;2022-09-01T07:02:55;100343.59;;;18.05;56.71
40730;BME280;26418;50.070;8.436;2022-09-01T07:05:23;100334.25;;;18.06;56.61
40730;BME280;26418;50.070;8.436;2022-09-01T07:07:53;100338.50;;;18.16;55.94
40730;BME280;26418;50.070;8.436;2022-09-01T07:10:25;100336.47;;;18.26;55.83
40730;BME280;26418;50.070;8.436;2022-09-01T07:12:52;100355.16;;;18.36;55.15
40730;BME280;26418;50.070;8.436;2022-09-01T07:15:20;100318.41;;;18.12;55.26
40730;BME280;26418;50.070;8.436;2022-09-01T07:17:51;100333.47;;;18.18;55.17
40730;BME280;26418;50.070;8.436;2022-09-01T07:20:19;100353.34;;;18.40;55.13
40730;BME280;26418;50.070;8.436;2022-09-01T07:22:58;100312.13;;;18.24;54.63
40730;BME280;26418;50.070;8.436;2022-09-01T07:25:24;100300.41;;;18.23;54.54
40730;BME280;26418;50.070;8.436;2022-09-01T07:27:50;100334.59;;;18.54;53.72
40730;BME280;26418;50.070;8.436;2022-09-01T07:30:20;100355.47;;;18.72;54.00
40730;BME280;26418;50.070;8.436;2022-09-01T07:32:47;100342.00;;;18.79;53.45
40730;BME280;26418;50.070;8.436;2022-09-01T07:35:15;100333.56;;;18.72;53.58
40730;BME280;26418;50.070;8.436;2022-09-01T07:37:42;100358.09;;;18.93;53.57
40730;BME280;26418;50.070;8.436;2022-09-01T07:40:12;100355.22;;;19.01;52.94
40730;BME280;26418;50.070;8.436;2022-09-01T07:42:48;100357.22;;;19.17;53.52
40730;BME280;26418;50.070;8.436;2022-09-01T07:45:18;100361.38;;;19.27;52.28
40730;BME280;26418;50.070;8.436;2022-09-01T07:47:44;100335.66;;;19.31;51.98
40730;BME280;26418;50.070;8.436;2022-09-01T07:50:11;100349.16;;;19.53;51.48
40730;BME280;26418;50.070;8.436;2022-09-01T07:52:38;100359.81;;;19.70;51.51
40730;BME280;26418;50.070;8.436;2022-09-01T07:55:11;100366.56;;;20.01;51.30
40730;BME280;26418;50.070;8.436;2022-09-01T07:57:38;100320.50;;;19.94;50.41
40730;BME280;26418;50.070;8.436;2022-09-01T08:00:08;100374.59;;;20.26;49.96
40730;BME280;26418;50.070;8.436;2022-09-01T08:02:33;100359.63;;;20.23;49.63
40730;BME280;26418;50.070;8.436;2022-09-01T08:05:00;100351.56;;;20.15;49.86
40730;BME280;26418;50.070;8.436;2022-09-01T08:07:25;100357.44;;;20.13;49.60
40730;BME280;26418;50.070;8.436;2022-09-01T08:09:51;100369.13;;;20.26;50.33
40730;BME280;26418;50.070;8.436;2022-09-01T08:12:16;100369.19;;;20.30;49.37
40730;BME280;26418;50.070;8.436;2022-09-01T08:14:42;100372.28;;;20.28;49.54
40730;BME280;26418;50.070;8.436;2022-09-01T08:17:07;100367.69;;;20.32;49.29
40730;BME280;26418;50.070;8.436;2022-09-01T08:19:33;100359.34;;;20.13;49.38
40730;BME280;26418;50.070;8.436;2022-09-01T08:21:58;100362.19;;;20.16;49.38
40730;BME280;26418;50.070;8.436;2022-09-01T08:24:23;100374.41;;;20.35;49.09
40730;BME280;26418;50.070;8.436;2022-09-01T08:26:49;100352.44;;;20.35;48.64
40730;BME280;26418;50.070;8.436;2022-09-01T08:29:14;100352.44;;;20.51;48.56
40730;BME280;26418;50.070;8.436;2022-09-01T08:31:39;100370.81;;;20.66;48.45
40730;BME280;26418;50.070;8.436;2022-09-01T08:34:05;100367.63;;;20.64;48.40
40730;BME280;26418;50.070;8.436;2022-09-01T08:36:31;100378.09;;;20.75;48.35
40730;BME280;26418;50.070;8.436;2022-09-01T08:38:56;100351.78;;;20.57;47.67
40730;BME280;26418;50.070;8.436;2022-09-01T08:46:41;100381.00;;;20.66;48.58
40730;BME280;26418;50.070;8.436;2022-09-01T08:49:20;100383.13;;;20.72;48.47
40730;BME280;26418;50.070;8.436;2022-09-01T08:52:22;100384.72;;;20.89;48.01
40730;BME280;26418;50.070;8.436;2022-09-01T08:57:36;100367.88;;;21.11;47.56
40730;BME280;26418;50.070;8.436;2022-09-01T09:00:03;100378.28;;;21.21;46.51
40730;BME280;26418;50.070;8.436;2022-09-01T09:02:41;100357.91;;;21.02;46.79
40730;BME280;26418;50.070;8.436;2022-09-01T09:11:03;100357.22;;;21.09;47.67
40730;BME280;26418;50.070;8.436;2022-09-01T09:13:48;100373.16;;;21.39;47.13
40730;BME280;26418;50.070;8.436;2022-09-01T09:16:21;100359.31;;;21.55;46.57
40730;BME280;26418;50.070;8.436;2022-09-01T09:21:35;100369.22;;;21.79;46.06
40730;BME280;26418;50.070;8.436;2022-09-01T09:26:30;100312.84;;;21.50;46.03
40730;BME280;26418;50.070;8.436;2022-09-01T09:28:56;100353.31;;;21.92;45.44
40730;BME280;26418;50.070;8.436;2022-09-01T09:33:50;100340.44;;;22.23;44.88
40730;BME280;26418;50.070;8.436;2022-09-01T09:36:18;100352.03;;;22.36;44.57
40730;BME280;26418;50.070;8.436;2022-09-01T09:38:44;100336.22;;;22.56;44.57
40730;BME280;26418;50.070;8.436;2022-09-01T09:41:19;100344.50;;;23.17;43.52
40730;BME280;26418;50.070;8.436;2022-09-01T09:43:56;100339.31;;;23.46;42.00
40730;BME280;26418;50.070;8.436;2022-09-01T09:46:34;100315.81;;;23.60;41.55
40730;BME280;26418;50.070;8.436;2022-09-01T09:51:31;100341.81;;;24.00;40.89
40730;BME280;26418;50.070;8.436;2022-09-01T09:54:20;100303.59;;;24.06;40.73
40730;BME280;26418;50.070;8.436;2022-09-01T09:56:47;100340.28;;;24.58;40.26
40730;BME280;26418;50.070;8.436;2022-09-01T10:02:36;100311.25;;;24.97;38.21
40730;BME280;26418;50.070;8.436;2022-09-01T10:05:35;100318.84;;;25.22;38.88
40730;BME280;26418;50.070;8.436;2022-09-01T10:08:02;100312.13;;;25.30;38.10
40730;BME280;26418;50.070;8.436;2022-09-01T10:10:35;100317.75;;;25.63;38.35
40730;BME280;26418;50.070;8.436;2022-09-01T10:13:03;100298.34;;;25.70;37.48
40730;BME280;26418;50.070;8.436;2022-09-01T10:15:31;100312.59;;;25.65;36.61
40730;BME280;26418;50.070;8.436;2022-09-01T10:18:06;100317.78;;;25.88;37.03
40730;BME280;26418;50.070;8.436;2022-09-01T10:20:33;100314.22;;;26.13;36.66
40730;BME280;26418;50.070;8.436;2022-09-01T10:23:01;100282.91;;;26.19;35.91
40730;BME280;26418;50.070;8.436;2022-09-01T10:25:30;100317.75;;;26.20;35.59
40730;BME280;26418;50.070;8.436;2022-09-01T10:28:18;100323.31;;;26.13;36.02
40730;BME280;26418;50.070;8.436;2022-09-01T10:30:49;100297.16;;;25.74;35.96
40730;BME280;26418;50.070;8.436;2022-09-01T10:33:17;100318.56;;;25.74;36.72
40730;BME280;26418;50.070;8.436;2022-09-01T10:35:45;100283.31;;;25.64;36.42
40730;BME280;26418;50.070;8.436;2022-09-01T10:38:30;100286.88;;;25.53;36.40
40730;BME280;26418;50.070;8.436;2022-09-01T10:40:57;100307.06;;;25.83;36.61
40730;BME280;26418;50.070;8.436;2022-09-01T10:48:51;100286.09;;;26.07;35.93
40730;BME280;26418;50.070;8.436;2022-09-01T10:53:55;100297.88;;;26.55;35.15
40730;BME280;26418;50.070;8.436;2022-09-01T10:56:37;100274.81;;;26.76;34.08
40730;BME280;26418;50.070;8.436;2022-09-01T11:09:28;100286.81;;;27.33;33.32
40730;BME280;26418;50.070;8.436;2022-09-01T11:12:20;100281.22;;;27.47;33.01
40730;BME280;26418;50.070;8.436;2022-09-01T11:14:58;100273.69;;;27.40;33.61
40730;BME280;26418;50.070;8.436;2022-09-01T11:19:54;100261.81;;;27.40;32.71
40730;BME280;26418;50.070;8.436;2022-09-01T11:27:57;100272.97;;;28.31;31.42
40730;BME280;26418;50.070;8.436;2022-09-01T11:36:28;100263.91;;;29.47;30.17
40730;BME280;26418;50.070;8.436;2022-09-01T11:39:07;100265.25;;;29.62;29.42
40730;BME280;26418;50.070;8.436;2022-09-01T11:41:45;100255.91;;;29.73;29.01
40730;BME280;26418;50.070;8.436;2022-09-01T11:44:24;100255.25;;;29.41;29.08
40730;BME280;26418;50.070;8.436;2022-09-01T11:46:51;100253.06;;;29.53;28.72
40730;BME280;26418;50.070;8.436;2022-09-01T11:51:54;100242.66;;;29.02;29.52
40730;BME280;26418;50.070;8.436;2022-09-01T11:54:22;100220.88;;;28.66;29.82
40730;BME280;26418;50.070;8.436;2022-09-01T11:56:47;100220.16;;;28.27;30.25
40730;BME280;26418;50.070;8.436;2022-09-01T11:59:12;100221.31;;;27.88;31.06
40730;BME280;26418;50.070;8.436;2022-09-01T12:01:39;100240.38;;;27.89;31.16
40730;BME280;26418;50.070;8.436;2022-09-01T12:04:37;100242.41;;;28.27;30.41
40730;BME280;26418;50.070;8.436;2022-09-01T12:07:10;100233.25;;;28.61;30.83
40730;BME280;26418;50.070;8.436;2022-09-01T12:09:44;100236.19;;;28.81;29.83
40730;BME280;26418;50.070;8.436;2022-09-01T12:12:31;100238.00;;;28.95;30.05
40730;BME280;26418;50.070;8.436;2022-09-01T12:15:10;100229.75;;;29.43;29.00
40730;BME280;26418;50.070;8.436;2022-09-01T12:17:40;100222.44;;;29.25;28.62
40730;BME280;26418;50.070;8.436;2022-09-01T12:22:50;100220.50;;;28.95;28.59
40730;BME280;26418;50.070;8.436;2022-09-01T12:25:22;100216.00;;;28.74;29.67
40730;BME280;26418;50.070;8.436;2022-09-01T12:27:49;100206.69;;;28.57;29.48
40730;BME280;26418;50.070;8.436;2022-09-01T12:30:16;100222.19;;;28.58;30.22
40730;BME280;26418;50.070;8.436;2022-09-01T12:32:42;100199.25;;;28.46;29.82
40730;BME280;26418;50.070;8.436;2022-09-01T12:35:21;100192.50;;;28.47;29.44
40730;BME280;26418;50.070;8.436;2022-09-01T12:37:48;100183.38;;;28.12;29.06
40730;BME280;26418;50.070;8.436;2022-09-01T12:42:51;100209.94;;;27.75;30.80
40730;BME280;26418;50.070;8.436;2022-09-01T12:45:36;100197.97;;;27.33;30.80
40730;BME280;26418;50.070;8.436;2022-09-01T12:48:01;100181.72;;;26.67;31.18
40730;BME280;26418;50.070;8.436;2022-09-01T12:55:22;100182.28;;;27.08;31.30
40730;BME280;26418;50.070;8.436;2022-09-01T12:57:51;100206.28;;;27.33;30.87
40730;BME280;26418;50.070;8.436;2022-09-01T13:00:25;100206.09;;;27.61;30.71
40730;BME280;26418;50.070;8.436;2022-09-01T13:05:38;100197.75;;;28.00;30.47
40730;BME280;26418;50.070;8.436;2022-09-01T13:08:10;100200.59;;;27.96;30.24
40730;BME280;26418;50.070;8.436;2022-09-01T13:10:41;100195.44;;;27.95;30.17
40730;BME280;26418;50.070;8.436;2022-09-01T13:13:09;100178.88;;;27.84;30.26
40730;BME280;26418;50.070;8.436;2022-09-01T13:15:39;100176.97;;;27.77;30.20
40730;BME280;26418;50.070;8.436;2022-09-01T13:18:05;100187.69;;;27.75;30.92
40730;BME280;26418;50.070;8.436;2022-09-01T13:20:30;100167.25;;;27.54;30.72
40730;BME280;26418;50.070;8.436;2022-09-01T13:22:56;100162.16;;;27.49;30.76
40730;BME280;26418;50.070;8.436;2022-09-01T13:25:22;100158.94;;;27.54;30.37
40730;BME280;26418;50.070;8.436;2022-09-01T13:27:48;100175.03;;;27.70;29.46
40730;BME280;26418;50.070;8.436;2022-09-01T13:30:17;100167.13;;;27.69;29.67
40730;BME280;26418;50.070;8.436;2022-09-01T13:32:44;100161.56;;;27.69;29.81
40730;BME280;26418;50.070;8.436;2022-09-01T13:35:11;100166.09;;;27.52;28.91
40730;BME280;26418;50.070;8.436;2022-09-01T13:37:36;100133.38;;;27.25;28.95
40730;BME280;26418;50.070;8.436;2022-09-01T13:40:03;100152.75;;;27.32;29.06
40730;BME280;26418;50.070;8.436;2022-09-01T13:42:30;100152.22;;;27.52;29.69
40730;BME280;26418;50.070;8.436;2022-09-01T13:44:55;100159.16;;;27.71;29.73
40730;BME280;26418;50.070;8.436;2022-09-01T13:47:20;100164.94;;;27.87;29.28
40730;BME280;26418;50.070;8.436;2022-09-01T13:49:46;100130.53;;;27.77;29.15
40730;BME280;26418;50.070;8.436;2022-09-01T13:52:11;100165.69;;;27.91;28.88
40730;BME280;26418;50.070;8.436;2022-09-01T13:54:37;100135.53;;;27.52;28.52
40730;BME280;26418;50.070;8.436;2022-09-01T13:57:02;100127.72;;;27.36;29.13
40730;BME280;26418;50.070;8.436;2022-09-01T13:59:28;100142.88;;;27.27;29.69
40730;BME280;26418;50.070;8.436;2022-09-01T14:01:54;100138.69;;;27.05;30.05
40730;BME280;26418;50.070;8.436;2022-09-01T14:04:20;100154.56;;;27.01;30.73
40730;BME280;26418;50.070;8.436;2022-09-01T14:06:47;100158.13;;;27.05;30.74
40730;BME280;26418;50.070;8.436;2022-09-01T14:09:13;100158.94;;;27.02;30.78
40730;BME280;26418;50.070;8.436;2022-09-01T14:11:39;100138.41;;;26.88;30.64
40730;BME280;26418;50.070;8.436;2022-09-01T14:14:05;100153.81;;;27.00;30.68
40730;BME280;26418;50.070;8.436;2022-09-01T14:16:31;100149.78;;;27.08;30.90
40730;BME280;26418;50.070;8.436;2022-09-01T14:18:57;100153.25;;;27.20;30.78
40730;BME280;26418;50.070;8.436;2022-09-01T14:21:24;100135.03;;;27.19;30.05